Sample Collected and Tested Report Back to Dashboard

Column Filters


Export All record to Excel

Sr No State District Town pH Turbidity Hardness Chloride Free Chlorine Iron Flourites Bacteria DO Tds Electric Conductivity Temperature Type of Pollution Remarks Latitude LongitudeAltitude Location Date of Sample Collection
1 Uttar Pardesh Allahabad Allahabad 8.86 10 240 80 0.1 0.15 0.5 N 398 19.5 Cremation Ground CHHATNAG GHAT 25.41994300 81.89259520 0000-00-00 , , Chak Sayad Arab Darvesh, Prayagraj, Uttar Pradesh-, IN 20-12-16
2 Uttar Pardesh Allahabad Allahabad 8.8 50 225 80 0.1 0 0.5 N 234 468 20.5 Ghat 10 feet from bank 25.30294090 82.05059840 0000-00-00 भीरपुर लकटहाघाट मार्ग, , Basahi, Prayagraj, Uttar Pradesh-212307, IN 20-12-16
3 Uttar Pardesh Allahabad Handia 8.5 0 210 160 0 0 0.7 N 218 437 21.9 Seasonal Nallah LAKSHA GRAH GHAT 25.27366960 82.09739180 0000-00-00 , , Usmapur Kachhar, Prayagraj, Uttar Pradesh-221505, IN 20-12-17
4 Uttar Pardesh Mirzapur Mirzapur 8.36 0 150 80 0 0 0.5 N 227 455 21.5 Ghat SITAMADHI GHAT MID STREEM SAMPLE 25.27343450 82.28056370 0000-00-00 Unnamed Road, , Nanepar Tari, Sant Ravidas Nagar, Uttar Pradesh-221309, IN 20-12-17
5 Uttar Pardesh Mirzapur Mirzapur 7.8 0 210 60 0 0 0.5 N 221 442 18.7 Ghat SIMRADHNATH GHAT 20 FEET FROM BANK 25.23454110 82.31822660 0000-00-00 Unnamed Road, , Chak Kolepur Khurd, Mirzapur, Uttar Pradesh-231313, IN 20-12-18
6 Uttar Pardesh Mirzapur Mirzapur 7.76 0 165 120 0 0 0.5 N 407 878 21.8 Cremation Ground RAMPUR GHAT SAMPLE MID STREAM 25.24560220 82.41110970 0000-00-00 Unnamed Road, , Bhaidpur, Mirzapur, Uttar Pradesh-231303, IN 20-12-18
7 Uttar Pardesh Mirzapur Mirzapur 8.06 0 180 60 0 0 0.5 N N 249 511 20.8 Ghat Chilh town drain fal in to the flad plane near ghat 25.15089610 82.55848100 0000-00-00 Unnamed Road, Surekapuram Colony, Mirzapur, Mirzapur, Uttar Pradesh-231001, IN 20-12-19
8 Uttar Pardesh Mirzapur Chunar 7.96 0 135 140 0 0 0.7 N 224 449 22.2 Cremation Ground BARENI GHAT SAMPLE MID STREAM 25.20306530 82.68496360 0000-00-00 Bhatauli Ghat Road, , Gadauli Village, Mirzapur, Uttar Pradesh-231501, IN 20-12-19
9 Uttar Pardesh Varanasi Varanasi 7.66 0 166 60 0 0 0.5 6.3 239 471 19.8 Sewerage Waste SAMNA GHAT 5KM UP STREAM NEAR NALA 25.27183770 83.01750650 0000-00-00 , Bhagwanpur, Varanasi, Varanasi, Uttar Pradesh-221001, IN 20-12-20
10 Uttar Pardesh Varanasi Varanasi 7.96 0 135 60 0 0 1 N 6.3 225 450 22.2 Sewerage Waste RAJ GHAT MALL THE BRIDGE 25.32198980 83.03395580 0000-00-00 Padao Road, Jalil Pur, Varanasi, Varanasi, Uttar Pradesh-221008, IN 20-12-20
11 Uttar Pardesh Varanasi Varanasi 7.76 0 150 60 0.1 0 0.5 6.1 228 457 22.2 Sewerage Waste DASHASHUMEDH GHAT 500 metter middle 25.28836460 83.03194180 0000-00-00 Unnamed Road, Katesar, , Varanasi, Uttar Pradesh-221008, IN 20-12-20
12 Uttar Pardesh Varanasi Varanasi 7.86 0 161 80 0 0 0.5 6.2 228 449 22.2 Sewerage Waste VARUNA RIVER 500 METTER DOWN FLOW 25.31509140 83.02052810 0000-00-00 , admpura, Varanasi, macodari, Uttar Pradesh-221001, IN 20-12-20
13 Uttar Pardesh Varanasi Varanasi 8.16 0 150 60 0 0 0.6 N 6.7 252 510 20.2 Cremation Ground BALUA GHAT SARSAWAL VARANASI UP 25.42171330 83.17681560 0000-00-00 Unnamed Road, , Sapsaul, Varanasi, Uttar Pradesh-221104, IN 20-12-22
14 Uttar Pardesh Varanasi Varanasi 8.36 0 150 80 0 0 0.5 N 7.6 224 473 20.2 Seasonal Nallah Dhakwa village temple varanasi 25.41558730 83.14429500 0000-00-00 Unnamed Road, , Siristi, Varanasi, Uttar Pradesh-221104, IN 20-12-22
15 Uttar Pardesh Gazipur Sadipur 8.06 0 150 60 0 0 0.6 N 7.1 237 475 22.8 Ghat MID STREEM SALPLE NARI PACHDEVRA VILLAGE 25.49008530 83.41181760 0000-00-00 Chochakpur - Saidpur Road, , Suapur, Ghazipur, Uttar Pradesh-233224, IN 20-12-23
16 Uttar Pardesh Gazipur Sadipur 7.96 0 180 60 0 0 0.5 N 8 249 512 25.7 Sewerage Waste SAIDPUR RAM GHAT 25.46104620 83.35606400 0000-00-00 Chochakpur - Dhanapur, , , Chandauli, Uttar Pradesh-232105, IN 20-12-23
17 Uttar Pardesh Gazipur Gazipur 8.06 0 165 80 0.1 0 0.5 N 14.0 266 579 23.8 Ghat BAWADA CHAKDUMPUR GHAZIPUR 25.61109930 83.62403460 0000-00-00 khalispur school, , Kotawalipur, Ghazipur, Uttar Pradesh-233002, IN 20-12-24
18 Uttar Pardesh Gazipur Gazipur 796 0 150 60 0 0 0.5 N 14.0 267 527 25.1 Ghat JAMANIYA GANGA BRIDGE GHAZIPUR 25.62440620 83.68453690 0000-00-00 Ghazipur-Ballia Rashtriya Rajmarg, , Sultanpur, Ghazipur, Uttar Pradesh-233227, IN 20-12-24
19 Uttar Pardesh Gazipur Gazipur 7.76 0 180 60 0 0 0.5 N 10.1 238 477 19.8 Sewerage Waste BIRPUR GHAT GAZIPUR 25.51584200 83.85276920 0000-00-00 Bara Sarkari Ghat Road, , Firojpur, Ghazipur, Uttar Pradesh-232325, IN 20-12-25
20 Uttar Pardesh Gazipur Gazipur 7.86 0 150 80 0 0 0.5 N 11 257 514 20.6 Seasonal Nallah CHAKTA RAFIYA GAZIPUR 25.52016040 83.85906490 0000-00-00 Unnamed Road, , Firojpur, Ghazipur, Uttar Pradesh-233231, IN 20-12-25
21 Uttar Pardesh Balia Phophna 8.06 0 161 40 0 0 0.5 N 12.7 264 527 19.1 Sewerage Waste NARAINPUR DAK BANGALO NEAR 25.59234690 83.97035200 0000-00-00 Ghazipur-Ballia Rashtriya Rajmarg, , Latiar, Ballia, Uttar Pradesh-277501, IN 20-12-26
22 Uttar Pardesh Balia Phophna 7.86 0 165 40 0 0 0.5 N 13.1 242 430 21 Ghat BALLIA MID STREEM SAMPLE DOLFIN ZONE 25.73834790 84.12409450 0000-00-00 , , Khae Khori Pakar, Ballia, Uttar Pradesh-, IN 20-12-26
23 Uttar Pardesh Balia Phophna 7.86 0 180 40 0 0 0.5 N 12.9 246 426 19.2 Ghat SHIVPUR DYAR NAMBARI GHAT 25.72391200 84.19147830 0000-00-00 , , Shivpur Diyar Numbery, Ballia, Uttar Pradesh-, IN 20-12-27
24 Uttar Pardesh Balia Rudrapur 7.96 0 150 60 0 0 0.5 N 10.2 245 456 19.2 Ghat BARKI NAINI JOD GHAT NEAR PO TOON BRIDGE 25.65563260 84.33957940 0000-00-00 Unnamed Road, , Mahuar Inglish, Bhojpur, Bihar-802112, IN 20-12-27
25 Uttar Pardesh Balia Rudrapur 8.06 0 150 60 0 0 0.5 N 11.5 228 456 20.2 Ghat DUBEY CHAPRA MID STREEM SAMPLE 25.77262030 84.41972850 0000-00-00 Ring Bandh, , Gopalpur, Ballia, Uttar Pradesh-277205, IN 20-12-27
26 Uttar Pardesh Balia Rudrapur 8.16 0 165 60 0 0 0.5 N 12.5 257 515 19.6 Ghat BHUSOULA GHAT MID STREAM SAMPLE , DRINKING WATER 6 HOUR LATER IS YELLOW , DOLFIN POINT 25.71435090 84.47714520 0000-00-00 Unnamed Road, , Sripalpur, Ballia, Uttar Pradesh-277216, IN 20-12-28
27 Bihar Bhojpur Mahaur Inglish 8.06 0 150 60 0 0 0.5 N 12.6 247 495 20.1 Ghat AARA DISTT KHAWASPUR MAULI GHAT MID STREEM 25.70076010 84.60686280 0000-00-00 , , , , Bihar-802316, IN 20-12-28
28 Bihar Saran Chapra 8.16 78 150 40 0 0 0.5 N 10.3 175 351 19.6 Ghat CHIRAND BANGALI BABA MATH CHAPRA 25.73323810 84.82475610 0000-00-00 Unnamed Road, , Bhairopur Nizamat, Saran, Bihar-841211, IN 20-12-30
29 Bihar Saran Nayagaon 8.16 0 150 40 0 0 0.5 N 11.6 199 347 19.5 Ghat NAKTA DIYARA PATNA 25.65200350 85.08681160 0000-00-00 , , Patna, Patna, Bihar-800011, IN 20-12-31
30 Bihar Vaishali Fatehpur Shehbaz 8.06 27 150 40 0 0 0.5 N 10.1 157 314 20.2 Ghat HAZIPUR NEAR GANDHI SETU PATNA 25.71954310 85.23229760 0000-00-00 Hajipur - Sarai Road, , Hajipur, Vaishali, Bihar-844102, IN 20-12-31
31 Bihar Vaishali Fatehpur Shehbaz 7.96 0 165 20 0 0 0.5 N 7.1 194 330 19.1 Ghat OPEN DEFICATION SAND MINING 25.57748660 85.33671960 0000-00-00 Unnamed Road, , , Vaishali, Bihar-844508, IN 21-01-01
32 Bihar Vaishali Fatehpur Shehbaz 8.06 25 135 40 0 0 0.5 N 9.5 180 350 21.2 Cremation Ground DHARNIPATTI MAHNAR VAISHALI BIHAR 25.60322700 85.52308180 0000-00-00 , , Lavapur Narayan, Vaishali, Bihar-844506, IN 21-01-01
33 Bihar Samastipur Patori 8.06 48 150 40 0 0.1 0 N 16.1 172 344 19.2 Ghat JAUNAPUR SAMASTIPUR BIHAR 25.49425290 85.62699050 0000-00-00 , , Arazi Barari Ram Nagar, Vaishali, Bihar-, IN 21-01-02
34 Bihar Samastipur Patori 7.96 0 120 20 0 0 0 N 6.2 182 365 20 Ghat PTASIA GHAT, DOLFIN. ZONE, CRIMATIO N GROUND MID STREEM SAMPLE 25.52422520 85.73982390 0000-00-00 Unnamed Road, , , , Bihar-848506, IN 21-01-02
35 Bihar Begusarai Begusarai 8.06 0 120 40 0 0.1 0.5 N 8.7 208 372 20 Cremation Ground AYODHYA MITHILA GHAT MID STREEM SAMPLE 25.38525810 85.95711780 0000-00-00 , , , Patna, Bihar-803303, IN 21-01-03
36 Bihar Begusarai Begusarai 8.16 0 120 20 0 0.05 0 N 10.1 189 270 19 Ghat ONE OF THE MOST POPULAR GHAT IN BIHAR-BEGUSARAI 25.37930560 86.00250360 0000-00-00 Maa Ganga Road, , Simariya, Patna, Bihar-851129, IN 21-01-04
37 Bihar Begusarai Begusarai 8.06 50 120 0 0 0.1 40 N 6.5 180 315 20 Ghat KHARAMPUR GHAT MATIANI SAMPLE FROM BANK RUNNING WATER CRIMATION GHAT 25.35705530 86.17533480 0000-00-00 Unnamed Road, , Chak, Begusarai, Bihar-851126, IN 21-01-04
38 Bihar Begusarai Begusarai 8.16 48 120 40 0 0.1 0.5 N 7.9 190 380 20 Cremation Ground MID STREEM SAMPLE MUNGER GHAT OF SALIGRAM TOWN BEHU SARAI NEARBY CREMATION GHAT 25.39273470 86.48022580 0000-00-00 Dhotal Mahto Road, Tikarampur, Munger, Munger, Bihar-811201, IN 21-01-05
39 Bihar Khageria Sahebpur Kamal 8.36 38 150 20 0 0.1 0.5 N 8.4 242 503 19.1 Ghat AGWANI GHAT MID STREEM WATER LEVEL IS 3 FEET ONLY SAMPLE COLLECTED 15 FT FROM BANK 25.25363340 86.73802270 0000-00-00 Ajgaivinath Temple Ghat Road, , Sultanganj, Bhagalpur, Bihar-813213, IN 21-01-08
40 Bihar Bhagalpur Bhagalpur 8.36 28 90 40 0 0 0.5 N 10.2 232 428 20.5 Ghat RAGHAVPUR VIL.MIDSTREEM SAMPLE 25.32297270 87.00791120 0000-00-00 Bihpur - Mahadeopur Ghat Road, , Lachhmipur Maheshpur, Bhagalpur, Bihar-812003, IN 21-01-09
41 Bihar Bhagalpur Bhagalpur 8.86 0 150 40 0 0.1 0 N 11.2 194 396 20.3 Ghat TINTANGA KARARI BHAGALPUR. CRIMATIOM GROUND OPEN DEFICATION 25.24901960 87.22030710 0000-00-00 , , Budhuchak, Bhagalpur, Bihar-, IN 21-01-10
42 Bihar Katihar Kursela Rly Stn 8.56 20 120 40 0 0.1 0 N 8.5 172 315 19.2 Ghat KHERIA GHAT KURSELA 25.42991320 87.25670230 0000-00-00 Unnamed Road, , Muradpur, Katihar, Bihar-854104, IN 21-01-11
43 Bihar Katihar Maniharighat 8.66 35 105 20 0 0.1 0 N 7 179 357 20 Ghat MANIHARI GHAT DOLFIN ZONE CREMATION GROUND 25.33962920 87.62002620 0000-00-00 Unnamed Road, , Pirpahar, Katihar, Bihar-854113, IN 21-01-12
44 Bihar Katihar Maniharighat 8.56 0 135 20 0 0 0.5 N 6.7 187 374 19.3 Ghat BABLABANNA GHAT KATIHAR 25.24522530 87.84523630 0000-00-00 Unnamed Road, , Kataha Diyara, Malda, Bihar-732205, IN 21-01-13
45 West Bengal Malda Rauta 8.86 0 120 20 0 0 0.5 N 7.9 147 365 19.1 Ghat MANIKCHAK GHAT MALDA WB DOLFIN POINT, 25.07818940 87.88949150 0000-00-00 Unnamed Road, , Ugritola, Malda, West Bengal-732202, IN 21-01-14
46 West Bengal Malda Panchandpur Vill. nearIngraj Bazar 8.76 0 120 20 0 0 0.5 N 6.4 171 342 19.2 Ghat PANCHANAND PUR MID STREAM IN RIVER MALDA W. BENGAL 24.95866940 87.98232270 0000-00-00 Unnamed Road, , Birodhi, Malda, West Bengal-732207, IN 21-01-15
47 West Bengal Malda Panchandpur Vill. nearIngraj Bazar 8.56 0 105 20 0 0 0.5 N 8.3 164 329 19.2 Ghat BALUPUR GHAT MALDA W. BENGAL 24.95757400 87.98354690 0000-00-00 Unnamed Road, , , Malda, West Bengal-732207, IN 21-01-15
48 West Bengal Murshidabad Dhulion Near Farakka Barrage townhsip 8.56 0 120 20 0 0.2 0 N 102 186 372 19.4 Ghat FARAKKA BARRAGE MURSHIDABAD 24.66315360 87.94451230 0000-00-00 Bidhan Chandra Road, , Jafrabad, Murshidabad, West Bengal-742202, IN 21-01-16
49 West Bengal Murshidabad Dhulion Near Farakka Barrage townhsip 8.66 0 120 20 0 0 0 N 10.6 200 401 19.1 Ghat NEAR DHULIAN BRIDGE FEEDER CANAL MURSHIDABAD W B 24.56635940 88.01322350 0000-00-00 , , Bamuha, Murshidabad, West Bengal-742201, IN 21-01-18
50 West Bengal Murshidabad Dhulion Near Farakka Barrage townhsip 8.56 0 120 20 0 0 0.5 N 9.2 158 317 19.4 Ghat BAMUHA VILLAGE MURSHIDABAD FEEDER CANAL W B . 24.56635940 88.01322350 0000-00-00 , , Bamuha, Murshidabad, West Bengal-742201, IN 21-01-18
51 West Bengal Murshidabad Raghunathganj 8.66 0 135 40 0 0 0.5 N 9.8 173 349 20.3 Ghat JANGIPUR BRIDGE, UP STREAM, MURSIDABAD 24.46407820 88.06936140 0000-00-00 Old Bus Stand Road, Chhota kalia, Jangipur, Murshidabad, West Bengal-742213, IN 21-01-18
52 West Bengal Murshidabad Dhulion Near Farakka Barrage townhsip 8.67 0 135 20 0 0 0.5 N 6.8 171 343 19.5 Sewerage Waste JANGIPUR NEAR BUS STAND MURSHIDABAD WB 24.46406770 88.06936500 0000-00-00 Old Bus Stand Road, Chhota kalia, Jangipur, Murshidabad, West Bengal-742213, IN 21-01-18
53 West Bengal Murshidabad Lalgpla 9.26 0 90 0 0 0 0 N 11.1 173 377 19.3 Ghat KADAMTALA BHASMATI ROAD SIDE GHAT MURSHIDABAD WB 24.35523920 88.19242520 0000-00-00 Unnamed Road, , Rajarampur, Murshidabad, West Bengal-742151, IN 21-01-19
54 West Bengal Murshidabad Dhulion Near Farakka Barrage townhsip 9.26 0 90 40 0 0 0 N 11.1 173 377 19.3 Ghat KADAMTALA BHASMATI MURSHIDAPUR W BENGAL 24.35585580 88.18660130 0000-00-00 Rajarampur Road, , Tejraypur, Murshidabad, West Bengal-742151, IN 21-01-19
55 West Bengal Murshidabad Dhulion Near Farakka Barrage townhsip 9.56 0 105 20 0 0 0 N 10.2 180 367 19.8 Ghat RAJARAMPUR MURSHIDABAD W BENGAL 24.35622710 88.18660130 0000-00-00 Rajarampur Road, , Tejraypur, Murshidabad, West Bengal-742151, IN 21-01-19
56 West Bengal Murshidabad Lalbag near Bahrampur 8.76 0 105 20 0 0 0 N 11.2 201 402 19.7 Ghat BASANTPUR , MURSIDABAD 24.27367140 88.23927260 0000-00-00 Ariyan Road, , Dasturhat, Murshidabad, West Bengal-742122, IN 21-01-20
57 West Bengal Murshidabad Lalbag near Bahrampur 8.86 0 105 20 0 0 0 N 9.2 165 340 20 Ghat JIYAGANJ, MURSIDABAD WB 24.27367140 88.23927260 0000-00-00 Ariyan Road, , Dasturhat, Murshidabad, West Bengal-742122, IN 21-01-20
58 West Bengal Murshidabad Lalbag near Bahrampur 8.76 0 105 40 0 0 0 N 8.4 191 383 19.3 Sewerage Waste NEAR MOTI JHIL BY PAS ROAD BAHRAMPUR MURSHIDABAD W. BENGAL 24.09604710 88.25495620 0000-00-00 5/3 Rabindranath Tagore Road, Gora Bazar, Berhampore, Murshidabad, West Bengal-742101, IN 21-01-21
59 West Bengal Murshidabad Lalbag near Bahrampur 8.76 0 90 40 0 0 0 N 7.8 186 372 19.5 Sewerage Waste BAHRAMPUR GIRJA MOD NEAR GANGA BRIDGE JANGI BABA TEMPLE GHAT AND 3 UPSTREAM & 4 DOWN STREAM NALLAS & PUBLIC ENCROCHMENT 24.09684790 88.25478590 0000-00-00 20 Bimal Sinha Road, Gora Bazar, Berhampore, Murshidabad, West Bengal-742101, IN 21-01-21
60 West Bengal Nadia Kaliganj 8.76 0 105 20 0 0 0 N 8.6 186 372 19.8 Ghat HALALPUR GHAT, NADIA 23.77890220 88.28428210 0000-00-00 , , Plassey, Nadia, West Bengal-741156, IN 21-01-22
61 West Bengal Nadia Kaliganj 8.56 0 120 20 0 0 0 N 7.6 158 316 19.9 Ghat TEJNAGAR GHAT, NADIA 23.77709330 88.28252430 0000-00-00 Betai - Plassey Road, Plassey, Plassey, Nadia, West Bengal-741156, IN 21-01-22
62 West Bengal Nadia Kaliganj 8.66 0 105 20 0 0.2 0.5 N 8.3 179 367 18.9 Ghat MATIHARI GHAT NADIA WEST BENGAL 23.55984010 88.31284500 0000-00-00 Unnamed Road, , Dadupur, Nadia, West Bengal-741162, IN 21-01-23
63 West Bengal Nadia Kaliganj 8.56 0 105 40 0 0.1 0.5 N 7.1 179 367 19.4 Ghat PATOLI GHAT UDAY CHANDRA PUR NADIA WEST BENGAL 23.56131460 88.31162990 0000-00-00 Uday Chandrapur Road, , , , West Bengal-741162, IN 21-01-23
64 West Bengal Nadia Krishna nagar 8.56 20 135 40 0 0.1 0.5 N 7.9 184 369 20.1 Ghat BAHIRDWIP ROAD NADIA WEST BENGAL 23.40965920 88.38922840 0000-00-00 Nabadwip Ghat Road, , Gadigachha, Nadia, West Bengal-741315, IN 21-01-24
65 West Bengal Nadia Krishna nagar 8.46 0 105 20 0 0.1 0.5 N 7.7 207 412 20.3 Sewerage Waste SWARUP GANJ GHAT PUBLIC ENCROCHMENT AND MANY SEWERAGE NALLAS WEST BENGAL 23.40965890 88.38922770 0000-00-00 Nabadwip Ghat Road, , Gadigachha, Nadia, West Bengal-741315, IN 21-01-24
66 West Bengal Nadia Krishna nagar 8.66 0 105 20 0 0.1 0.5 0 11.5 195 389 19.3 Ghat SHRI RAMPUR GHAT, NADIA 23.33004360 88.39144770 0000-00-00 Bhaluka Road, , Bhaluka, Nadia, West Bengal-741317, IN 21-01-26
67 West Bengal Nadia Muragacha Near Nakasipura 8.66 0 105 40 0 0.1 0 N 10.4 169 352 19.2 Encroachment MUKUND NAGAR PARADANGA NADIA W B 23.11662170 88.51455170 0000-00-00 Unnamed Road, , Payradanga, Nadia, West Bengal-741222, IN 21-01-27
68 West Bengal Nadia Krishna nagar 8.86 0 90 40 0 0.1 0 N 9.2 176 352 19.4 Encroachment KRITTIBAS GHAT FULIA NADIA W B 23.11662170 88.51455170 0000-00-00 Unnamed Road, , Payradanga, Nadia, West Bengal-741222, IN 21-01-27
69 West Bengal Nadia Krishna nagar 8.56 0 90 20 0 0.1 0.5 N 7.2 159 316 19.5 Sewerage Waste SEWERAGE WASTE AND PUBLIC ENCROCHMENT SANYAL CHAR GHAT CHAKGHA NADIA W BENGAL 23.07563370 88.51915270 0000-00-00 Bhagirathi Road, , Chakdaha, Nadia, West Bengal-741222, IN 21-01-27
70 West Bengal Nadia Kalyani 7.76 0 120 20 0 0.1 0.5 N 12.1 142 385 19.1 Encroachment ESWARI GHAT KALYANI NADIA WEST BENGAL 23.01355020 88.44075040 0000-00-00 Unnamed Road, , Ganga Manoharpur, Nadia, West Bengal-741245, IN 21-01-28
71 West Bengal Nadia Kalyani 8.76 0 105 40 0 0.1 0.5 N 11.2 184 364 20.3 Encroachment RANI RASMATI TEMPLE KALYANI WEST BENGAL 22.95888950 88.41569770 0000-00-00 , Halisahar, Kolkata, Nadia, West Bengal-743134, IN 21-01-28
72 West Bengal Nadia Kalyani 8.56 0 135 20 0 0.1 0.5 N 9.6 200 398 19.3 Ghat JAGATDAL NADIA W BENGAL PUBLIC ENCROCHMENT 22.76545670 88.34391000 0000-00-00 Local Road, , Barrackpur Cantonment, North 24 Parganas, West Bengal-700120, IN 21-01-29
73 West Bengal N.24 Pargana Tilagarh 8.66 0 135 40 0 0.1 0.5 N 13.8 196 390 19.4 Sewerage Waste BARRACKPORE MANGAL PANDEY GHAT WEST BANGAL 22.76654320 88.34454170 0000-00-00 River Side Road, Cantonment, Barrackpore, North 24 Parganas, West Bengal-743122, IN 21-01-29
74 West Bengal N.24 Pargana Tilagarh 8.46 50 135 20 0 0.2 0.5 N 13.1 201 403 20.3 Sewerage Waste SEWERAGE NALA AND INDUSTRIAL WASTE BABU GHAT KOLKATA W BENGAL 22.52990160 88.35977580 0000-00-00 , Ballygunge, Kolkata, Kolkata, West Bengal-700019, IN 21-01-30
75 West Bengal N.24 Pargana Tilagarh 6.68 58 120 20 0.05 0.2 0.5 N 11.1 204 470 20.1 Sewerage Waste DAKSHINESHWAR TEMPLE GHAT KOLKALA W BENGAL SEWERAGE NALA AND PUBLIC ENCROCHMENT 22.52984750 88.35970140 0000-00-00 , Ballygunge, Kolkata, Kolkata, West Bengal-700019, IN 21-01-30
76 West Bengal N.24 Pargana Tilagarh 8.36 50 120 20 0 0.1 0 N 10.1 170 362 21.1 Ghat BALUGHAT, KOLKATA 22.51309760 88.22436060 0000-00-00 Uddyanpally Main Road, Budge Budge, Kolkata, Kolkata, West Bengal-700140, IN 21-02-01
77 West Bengal S.24 Pargana Fatehpur Vill. Near Dimond Harbour 8.06 110 105 40 0 0.2 0 N 9.3 176 352 23.2 Ghat RAIPUR GHAT, KOLKATA W.B. 22.30331540 88.11403650 0000-00-00 Falta Road, , Falta, South 24 Parganas, West Bengal-743504, IN 21-02-01
78 West Bengal S.24 Pargana Fatehpur Vill. Near Dimond Harbour 8.26 140 165 180 0.1 0.3 0.5 N 9.5 488 977 24.4 Ghat NEAR FALTA POLICE STATION 22.31071760 88.11006950 0000-00-00 Unnamed Road, , Shyamsundarpur, South 24 Parganas, West Bengal-743504, IN 21-02-01
79 West Bengal S.24 Pargana Nurpur 7.96 108 165 540 0 0.1 0.5 N 8.4 865 1770 21.9 Ghat NOORPUR FERRY GHAT MID STREAM MALTA KOLKATA WB 22.21126500 88.07235500 0000-00-00 Noorpur - Geonkhali Ferry, , Noorpur, South 24 Parganas, West Bengal-743368, IN 21-02-02
80 West Bengal S.24 Pargana Nurpur 8.16 135 165 300 0 0.2 0.5 N 8.8 516 1130 21.6 Ghat NOORPUR GHAT FALTA ( RIVER BANK ) KOLKATA WB 22.21125330 88.07265330 0000-00-00 Noorpur Road, , Noorpur, South 24 Parganas, West Bengal-743368, IN 21-02-02
81 West Bengal S.24 Pargana Nurpur 8.26 135 180 400 0 0.2 0.5 N 9.3 833 1660 24.9 Ghat Diamond hourbour, Kolkata 22.08193110 88.23379530 0000-00-00 Kulpi - Paschim Jadabnagar Road, , Durganagar, South 24 Parganas, West Bengal-743351, IN 21-02-02
82 West Bengal S.24 Pargana Kulpi 8.06 140 255 800 0.1 0.2 0.5 N 10.3 1500 3090 23.5 Ghat DURGAPUR,NEAR SARDARPUR KOLKATA 22.08378040 88.23257800 0000-00-00 Kulpi - Paschim Jadabnagar Road, , Durganagar, South 24 Parganas, West Bengal-743351, IN 21-02-02
83 West Bengal S.24 Pargana Kulpi 8.16 165 405 1360 0 0.7 1 N 4.5 2420 4850 21.5 Ghat LOT OF PLASTIC OTHER WASTE SCATERED ON THE BANK 22.02880330 88.21187170 0000-00-00 Unnamed Road, , Tyangra Char, South 24 Parganas, West Bengal-743348, IN 21-02-03
84 West Bengal S.24 Pargana kakdwip 8.26 100 1500 6600 0 0.1 1 N 8.9 5070 MORE THAN 10000 24.3 Ghat HARWOOD POINT COSTLE POLICE STATION KULPI KOLKATA WB 21.89533780 88.17937250 0000-00-00 Unnamed Road, , Kalinagar, South 24 Parganas, West Bengal-743347, IN 21-02-04
85 West Bengal Haora Ulaberiya 8.46 0 150 40 0 0 0.5 N 8.3 250 473 21.3 Ghat CHHIYA GHAT NEAR KALIBARI GHAT ULUBERIA HOWRAH WB 22.46457500 88.11375000 0000-00-00 , Uluberia, Howrah, Howrah, West Bengal-711315, IN 21-02-06
86 West Bengal Haora Bally Near Haora 8.56 0 150 60 0 0.01 0.5 N 8.1 220 456 20.3 Ghat LONJ GHAT SHIV TEMPLE PS BOURIA WB 22.49725830 88.18176330 0000-00-00 , Nalpur, Howrah, Howrah, West Bengal-711305, IN 21-02-07
87 West Bengal S.24 Pargana Kakdeep 8.26 100 1650 6600 0 0.1 1 N 8.9 5070 1100 24.3 Sewerage Waste HARWOOD POINT COSTLE POLICE STATION KOLKATA WB 22.49657630 88.18113650 0000-00-00 , Nalpur, Howrah, Howrah, West Bengal-711305, IN 21-02-07
88 West Bengal Haora Bally Near Haora 8.23 0 135 20 0 0.04 0.5 N 6.3 173 347 21.3 Ghat SANKRAIL SAMSHAN GHAT, HAWRAH WB 22.55861560 88.23144980 0000-00-00 Sankrail Police Station Road, Sankrail, Howrah, Howrah, West Bengal-711313, IN 21-02-07
89 West Bengal Haora Bally Near Haora 8.76 0 135 20 0 0 0.5 N 9.7 190 372 21.1°C Ghat Roychoudhary ghat road Howrah WB( Shivpur launjghat) 22.56253960 88.32719240 0000-00-00 97/2/10 R Roychowdhury Ghat Road, Shibpur, Howrah, Howrah, West Bengal-711102, IN 21-02-08
90 West Bengal Haora Bally Near Haora 8.66 0 120 40 0 0 0.5 N 12.1 205 411 23.1 Ghat Bally Deshbandhu house 22.64531360 88.35165140 0000-00-00 166 Grand Trunk Road, Bally, Howrah, Howrah, West Bengal-711201, IN 21-02-09
91 West Bengal Haora Bally Near Haora 8.66 0 135 40 0 0 0 N 7.6 202 406 20.9 Sewerage Waste BALLY GHAT RIVER BANK DESHBANDHU CLUB HOWRAH WB 22.84852990 88.36967330 0000-00-00 , Mankundu, Chandannagar, Hooghly, West Bengal-712136, IN 21-02-10
92 West Bengal Hugli Chunchura 8.76 0 135 20 0 0 0 N 7.3 170 379 23.2 Sewerage Waste HATISALA GHAT HOOGHLY WB 22.84892810 88.36761530 0000-00-00 , Mankundu, Chandannagar, Hooghly, West Bengal-712136, IN 21-02-10
93 West Bengal Hugli Chunchura 8.76 0 120 20 0 0 0 N 11.7 191 385 20.9 Sewerage Waste CHANDAN NAGAR AKASH GANGA HOOGHLY WB 22.84796460 88.36950480 0000-00-00 , Mankundu, Chandannagar, Hooghly, West Bengal-712136, IN 21-02-11
94 West Bengal Hugli Chunchura 8.86 0 120 20 0 0 0 N 10.2 184 368 21.3°C Ghat Gandeshwari ghat Shivtala 22.97076170 88.41175800 0000-00-00 Unnamed Road, , Kalyani, Nadia, West Bengal-741235, IN 21-02-11
95 West Bengal Hugli Khamargachi 8.56 0 105 40 0 0 0 N 7.8 152 305 22.5 Ghat SABUJI DWIP JETTY GHAT JIRAT, WB 23.09712370 88.46845920 0000-00-00 Jirat Station Road, Kalitala, Jirat, Hooghly, West Bengal-712501, IN 21-02-11
96 West Bengal Bardhhman Kalna 8.76 0 120 20 0 1 0 N 7.1 148 296 21 Ghat MILITRY GHAT KATIGANGA KALNA BARDHMAN WB 23.22514830 88.36983170 0000-00-00 Unnamed Road, , Kalna, Nadia, West Bengal-713409, IN 21-02-12
97 West Bengal Hugli Chunchura 8.56 0 120 20 0 0 0 N 6.7 148 296 21.2 Cremation Ground GUPTIPARA FERRY GHAT BALAGAR BARDHAMAN HOOGHLY WB 23.20680170 88.42093830 0000-00-00 Guptipara Ghat Road, , Guptipara, Bardhaman, West Bengal-712512, IN 21-02-12
98 West Bengal Bardhhman Kalna 8.66 0 120 20 0 1 0 N 8 166 332 20.5 Ghat JALUIDANGA GANGA GHAT KALNA WARDHAMAN WB 23.35187500 88.33237670 0000-00-00 Unnamed Road, , Jalahati, Bardhaman, West Bengal-741317, IN 21-02-13
99 West Bengal Bardhhman Kalna 8.96 0 120 20 0 1 0 N 8.2 179 359 24.9 Seasonal Nallah NEAR PAKICHARA GHAT BARDHAMAN WB 23.46257670 88.35089500 0000-00-00 Unnamed Road, , , Bardhaman, West Bengal-713513, IN 21-02-14
100 West Bengal Bardhhman Katoya 8.96 0 165 40 0 0.1 0.5 N 7.5 166 338 21.9 Ghat Bahara ghat , gazipur Bardhaman 23.57238910 88.23683830 0000-00-00 Unnamed Road, , Bahara, Bardhaman, West Bengal-713502, IN 21-02-15
101 West Bengal Bardhhman Katoya 8.66 0 135 20 0 0 0.5 N 6.9 152 305 22.1 Ghat MORI GHAT NEAR BALLABPARA FERRY A SEAWERAGE NALA GHAT KATWA WB 23.64370000 88.14463000 0000-00-00 , Bagane Para, Katwa, Bardhaman, West Bengal-713130, IN 21-02-15
102 West Bengal Murshidabad Lalgpla 8.56 0 135 20 0 0 0 N 6.2 156 311 21.8 Ghat RAM NAGAR FERRI GHAT ,WB 23.79962820 88.24292380 0000-00-00 , , Char Tejnagar, Nadia, West Bengal-741157, IN 21-02-16
103 West Bengal Murshidabad Lalbag near Bahrampur 8.56 0 150 20 0 0 0.5 N 6.6 162 324 22.2 Sewerage Waste HALSANAPARA JALALPUR GHAT MURSHIDABAD WB 23.95954290 88.19769450 0000-00-00 Khan Saheb Street, , Jalalpur, Murshidabad, West Bengal-742189, IN 21-02-17
104 West Bengal Murshidabad Baldonga 8.56 0 134 20 0 0 0.5 N 6 160 317 24.2°C Ghat RADHAR GHAT, BERHAMPORE WB 24.10435040 88.24322800 0000-00-00 , , Berhampore, Murshidabad, West Bengal-742187, IN 21-02-17
105 West Bengal Murshidabad Baldonga 8.56 0 165 20 0 0 0.5 N 7 153 307 22.8°C Ghat DAHAPARA GHAT BERHAMPORE 24.18896460 88.26908140 0000-00-00 Hazarduari Museum Road, Hazarduari, Murshidabad, Murshidabad, West Bengal-742149, IN 21-02-18
106 West Bengal Murshidabad Alimganj 8.46 0 120 20 0 0 0.5 N 7.4 151 302 22.4 Ghat JAIN PATTI NEAR SADAR GHAT AZIMGANJ MURSHIDABAD WB 24.24220830 88.25276170 0000-00-00 Rani Bhabani Road, , Azimganj, Murshidabad, West Bengal-742104, IN 21-02-18
107 West Bengal Murshidabad Raghunathganj 8.46 0 135 20 0 0 0.5 N 7.8 158 318 23.1 Ghat BALIYA GHAT SAGURDIGI MURSHIDABAD WB 24.35873830 88.16514000 0000-00-00 Unnamed Road, , , Murshidabad, West Bengal-742237, IN 21-02-19
108 West Bengal Murshidabad Raghunathganj 8.56 0 120 20 0 0 0.5 N 7.5 158 316 24.4 Sewerage Waste SUBHASH DWIP JANGIPUR POLYTECHNIC COLLEGE MURSHIDABAD WB 24.47150330 88.06526660 0000-00-00 Jangipur Polytechnic College Road, , Raghunathganj, Murshidabad, West Bengal-742225, IN 21-02-19
109 West Bengal Murshidabad Raghunathganj 8.66 0 150 20 0 0 0 N 8.5 172 345 22.6 Ghat AHIRAN BILL BIRD SANCTUARY NEAR GANGA BRIEDGE SADIKPUR MURSHIDABAD WB 24.53975170 88.03164170 0000-00-00 Ahiron Bridge, , Sadikpur, Murshidabad, West Bengal-731221, IN 21-02-20
110 West Bengal Murshidabad Suti 8.56 0 120 20 0 0 0.5 N 7.8 152 302 23.4 Ghat MAHAWATPUR GHAT MURSHIDABAD WB OPEN DEFICATION 24.63905830 87.92801000 0000-00-00 , , Bhasaipaikar, Murshidabad, West Bengal-742202, IN 21-02-21
111 Jharkhand Sahibganj Rajmahal 8.76 0 135 20 0 0 0.5 N 7.2 168 302 25 Ghat RAJMAHAL GHAT JHARKHAND 25.05360830 87.83919000 0000-00-00 Unnamed Road, , , Sahibganj, Jharkhand-816108, IN 21-02-23
112 Jharkhand Sahibganj Maharajpur 8.66 0 180 20 0 0 0.5 N 8.7 220 434 25.1 Ghat MASKALAIYA GHAT SAHIBGANJ JHARKHAND 25.14599460 87.76357170 0000-00-00 National Highway 33, , Dhanbad, Sahibganj, Jharkhand-816115, IN 21-02-24
113 Jharkhand Sahibganj Sahibganj 8.76 0 150 20 0 0 0.5 N 7.4 144 296 24.4 Ghat SAMDAGHAT SAHIBGANJ JHARKHAND 25.24761070 87.70047980 0000-00-00 Unnamed Road, , Samda Nala, Sahibganj, Jharkhand-816115, IN 21-02-24
114 Jharkhand Sahibganj Sahibganj 8.76 0 150 20 0 0 0.5 N 6 156 313 25.1 Ghat GARAM GHAT ( FERRY GHAT ) SAHIBGANJ JHARKHAND 25.28812670 87.62864000 0000-00-00 Unnamed Road, , Harparshad ogairah, Sahibganj, Jharkhand-816109, IN 21-02-25
115 Bihar Katihar Bhawanipur 8.66 0 135 20 0 0 0.5 N 6.7 152 305 24.3°C Ghat Bakiya ghat peerpaithi, katihar Bihar 25.42673280 87.51593590 0000-00-00 Unnamed Road, , Mohana Chandpur, Katihar, Bihar-854104, IN 21-02-25
116 Bihar Bhagalpur Kohalgaun 8.66 0 150 20 0 0.1 0 N 6.4 141 350 25.6 Ghat KASHRI PATTHAR GHAT NEAR BATESHWAR DHAM BHAGALPUR 25.29869000 87.25825000 0000-00-00 , , Tintanga Diyara North, Bhagalpur, Bihar-813203, IN 21-02-26
117 Bihar Bhagalpur Kohalgaun 7.76 0 135 20 0 0.1 0 N 8 164 329 24°C Ghat Kahalgaon Jahaj GHAT, Bhagalpur 25.26415090 87.23773050 0000-00-00 Kahalgaon - NTPC - Barahat Road, , Kahalgaon, Bhagalpur, Bihar-813203, IN 21-02-26
118 Bihar Bhagalpur Bhagalpur 8.76 0 150 20 0 0 0 N 7 168 336 25.9 Ghat ENGLISH VILL GHAT FARKA BHAGALPUR BIHAR 25.23187830 87.08903170 0000-00-00 Unnamed Road, , Farka, Bhagalpur, Bihar-813210, IN 21-02-27
119 Bihar Bhagalpur Bhagalpur 8.66 0 135 20 0 0 0.5 N 5.6 127 328 29.6 Sewerage Waste BARARI PUL GHAT BHAGALPUR BIHAR 25.26456770 87.02947460 0000-00-00 Ion Digital TCS Lane, , Barari, Bhagalpur, Bihar-812003, IN 21-02-28
120 Bihar Bhagalpur Bhagalpur 8.56 0 165 20 0 0.1 0 N 6.2 181 366 27.4 Ghat VISANPUR GHAT GHAGALPUR BIHAR ( DOLFIN ZONE ) 25.29263500 86.88633000 0000-00-00 Unnamed Road, , Shahzadpur, Bhagalpur, Bihar-812004, IN 21-03-01
121 Bihar Bhagalpur Bhagalpur 8.86 0 135 20 0 0.1 0 N 7.9 272 344 25.2 Ghat SULTANGANJ AJGAVI GHAT BHAGALPUR BIHAR 25.25302170 86.73464830 0000-00-00 Ajgaivinath Temple Ghat Road, , Sultanganj, Bhagalpur, Bihar-813213, IN 21-03-01
122 Bihar Bhagalpur Bhagalpur 7.46 0 285 120 0 0.6 1 Y 0.8 514 1020 26.4 Sewerage Waste DRIFTWOOD PARK BHAGALPUR BIHAR (27/01/21) 25.24639450 86.73468940 0000-00-00 Bhagalpur - Munger Road, Modi Tola Ward Number 6, Sultanganj, Bhagalpur, Bihar-813213, IN 21-03-02
123 Bihar Munger Munger 8.76 0 135 40 0 0 0.5 N 5.9 157 314 25.7 Ghat KALYANPUR GHAT MUNGER BIHAR 25.25455460 86.61401950 0000-00-00 Unnamed Road, Kalyanpur, Gangania, Munger, Bihar-811213, IN 21-03-02
124 Bihar Munger Munger 8.86 0 135 20 0 0.1 0.5 N 6 168 334 26.8 Ghat KAST HARNI GHAT MUNGER 25.38277280 86.46568880 0000-00-00 , Munger Fort, Munger, Munger, Bihar-811201, IN 21-03-02
125 Bihar Munger Munger 8.66 35 135 20 0 0.1 0 N 6.6 191 384 24.4 Ghat Shivkund ghat, Munger Bihar 25.30367300 86.40623280 0000-00-00 Mokama Munger Road, , Singhia, Munger, Bihar-811212, IN 21-03-03
126 Bihar Begusarai Begusarai 8.76 0 135 20 0 0 0.5 N 5.6 179 359 27.1°C Ghat Shamodih ghat Surjighadha, Bihar 25.35360270 86.19917100 0000-00-00 Unnamed Road, , Balahpur, Begusarai, Bihar-851126, IN 21-03-03
127 Bihar Begusarai Begusarai 8.86 0 135 20 0 0 0 N 6.1 157 323 25.5°C Ghat Simariya ghat, lakhisarai, Bihar 25.37871130 86.00179200 0000-00-00 Asian Highway 42, , Simariya, , Bihar-851129, IN 21-03-04
128 Bihar Mokama Mokameh 8.86 0 120 40 0 0 0.5 N 6.1 190 383 26.8 Ghat MOKAMA GHAT CRPF CAMP 25.42607460 85.98998900 0000-00-00 Road Number 2, , Amarpur, Begusarai, Bihar-851118, IN 21-03-05
129 Bihar Patna Patna 8.66 0 135 40 0 0 0.5 N 8.9 206 425 27.1 Ghat Barh omanath ghat,Patna 25.46744140 85.70078090 0000-00-00 Bhagalpur - Patna Road, , Barh, Patna, Bihar-803213, IN 21-03-06
130 Bihar Patna Barh 8.76 0 135 40 0 0 0.5 N 8.1 182 373 25.6 Cremation Ground DHIWAR GHAT NTPC BARH PATNA 25.50619500 85.74158830 0000-00-00 Unnamed Road, , Jazira Raili, Patna, Bihar-803215, IN 21-03-06
131 Bihar Patna Barh 8.46 0 135 40 0.1 0 0.5 N 5.9 218 440 26.6 Ghat RAM NAGAR DIYARA BABU GANPAT RAI KA TOLA BARH PATNA BIHAR ( DOLFIN ZONE AND OPEN DEFICATION ) 25.47807170 85.56944170 0000-00-00 Ram Nagar Diyara Road, , Satbhaiya Ram Nagar, Patna, Bihar-803211, IN 21-03-07
132 Bihar Patna Khusrupur 8.46 0 135 40 0.1 0 0.5 N ... 196 389 26.8°C Ghat Yaspur, Patna 25.50575120 85.34511650 0000-00-00 Patna - Bakhtiyarpur Road, , Khirodharpur, Patna, Bihar-803202, IN 21-03-08
133 Bihar Patna Khusrupur 8.46 0 135 20 0 0 0.7 N 5.4 230 460 25°C Ghat Adilpur ghat, Khusrupur,Patna 25.50788588 85.34306324 0000-00-00 Patna - Bakhtiyarpur Road, , Khirodharpur, Patna, Bihar-803202, IN 21-03-08
134 Bihar Patna Patna 8.66 0 135 40 0 0 0.7 N 7.8 230 460 26.1 Ghat KANGAN GHAT GURU DWARA PATNA 25.60089020 85.22647260 0000-00-00 Phulauri Gali, Hajiganj, Patna, Patna, Bihar-800008, IN 21-03-08
135 Bihar Patna Patna 8.56 0 150 20 0.1 0 0.7 N 7.1 236 471 25.9 Cremation Ground BAS GHAT ASHOKPATH PATNA 25.63266200 85.11535570 0000-00-00 Danapur Road, Kurji, Patna, Patna, Bihar-800010, IN 21-03-09
136 Bihar Patna Patna 8.76 0 120 20 0.1 0 0.7 N 7.8 213 426 27.2 Ghat Danapur ghat Near Army Cant 25.63584330 85.03068000 0000-00-00 Danapur Main Road, Danapur Cantonment, Patna, Patna, Bihar-801503, IN 21-03-10
137 Bihar Patna Maner 8.96 0 120 20 0.1 0.1 0.6 N 10.7 181 374 27.3 Sewerage Waste SHERPUR GHAT PATNA SAND MINING AND MANY ET CHIMANI NEAR GANGA 25.65608980 84.97101210 0000-00-00 , , , , -, IN 21-03-12
138 Bihar Patna Maner 8.76 25 120 20 0 0.1 0.6 N 10.2 116 231 26.8°C Ghat Haldi Chapra ghat Rampur,Diyara 25.70883760 84.86184240 0000-00-00 , , Haldi Chhapra, Patna, Bihar-, IN 21-03-13
139 Bihar Bhojpur Gazipur Farhada 8.86 0 105 40 0.1 0.1 0.6 N 10.4 258 517 28 Ghat TEKSEMAR GHAT ARRAH PATNA BIHAR 25.65196770 84.53417800 0000-00-00 Unnamed Road, , Salempur, Bhojpur, Bihar-802351, IN 21-03-14
140 Bihar Buxar Gangauli 8.66 0 105 40 0.1 0 0.5 N 8.7 186 451 27.7 Ghat Barki ghat, paetoon Bridge , Buxar 25.70833680 84.34878240 0000-00-00 Barki Nainijore, Buxar Pachbhaiya Tola Road, , North Nainijor, Buxar, Bihar-802144, IN 21-03-14
141 Bihar Buxar Buxar 8.56 0 105 40 0 0.1 N 6.6 181 360 27.7 Ghat Saripur ghat, Bihar 25.59576460 83.98451200 0000-00-00 NH-84, , Kumkum Patti, Ballia, Uttar Pradesh-277501, IN 21-03-15
142 Bihar Buxar Buxar 9.1 0 120 40 0.1 0 0.6 N 7.4 227 465 28.3 Ghat MAHADEWA GHAT CHOUSA BIHAR 25.52639520 83.91139340 0000-00-00 Buxar - Chausa - Sasaram Road, , Narbatpur Taufir Unsurveyed, Buxar, Bihar-802114, IN 21-03-17
143 Uttar Pardesh Gazipur Gazipur 9.18 0 120 60 0.1 0 0.8 N 8.9 236 476 28.6 Ghat PASCHAMI CANAL GHAT GAHMAR GAZIPUR UP ( OPEN DEFICATION) 25.50113460 83.80105410 0000-00-00 Gahmar Bypass Road, , Gahmar, Ghazipur, Uttar Pradesh-232327, IN 21-03-17
144 Uttar Pardesh Gazipur Gazipur 8.86 0 120 40 0.1 0 0.5 N 10.3 228 457 28.9 Ghat TARI GHAT GAZIPUR UP 25.58432880 83.59309610 0000-00-00 Jhandatar, Jhandatar, Ghazipur, Ghazipur, Uttar Pradesh-233001, IN 21-03-18
145 Uttar Pardesh Gazipur Zamania 9.18 0 120 40 0.1 0 0.6 N 10.2 224 449 29.3 Ghat JAMANIYA GHAT UP 25.41141050 83.55748120 0000-00-00 , Chandpur, Babbanpur, Ghazipur, Uttar Pradesh-232329, IN 21-03-18
146 Uttar Pardesh Gazipur Gazipur 8.86 0 120 40 0.1 0 0.7 N 9 205 413 27.3 Cremation Ground JIGINA GHAT CHANDOULI UP 25.41487000 83.48392170 0000-00-00 Ganga Ghat Road, , Jigana, Chandauli, Uttar Pradesh-232106, IN 21-03-19
147 Uttar Pardesh Gazipur Gazipur 8.96 0 105 40 0.1 0 0.6 N 220 465 29.5°c Ghat BABA VEER DAMHARI TEMPLE BUDHEPUR GHAT CHANDOULI 25.46137500 83.33495000 0000-00-00 Unnamed Road, , Naughara, Chandauli, Uttar Pradesh-232105, IN 21-03-19
148 Uttar Pardesh Gazipur Gazipur 8.96 0 105 40 0.1 0 0.6 N 7.8 220 465 29.5 Ghat BABA VEER DAMHARI TEMPLE, BUDHE PUR GHAT CHANDOULI 25.46176500 83.33454500 0000-00-00 Unnamed Road, , Naughara, Chandauli, Uttar Pradesh-232105, IN 21-03-19
149 Uttar Pardesh Varanasi Mughalsarai 8.86 0 105 40 0.1 0 0.6 N 7.1 214 445 28.1°C Ghat Balua GHAT Chandauli, UP 25.42147680 83.18382420 0000-00-00 , , Sapsaul, Varanasi, Uttar Pradesh-221104, IN 21-03-20
150 Uttar Pardesh Varanasi Mughalsarai 8.96 0 90 40 0 0 0.6 N 9.1 TDS 447 29.2 Cremation Ground KAILI GHAT MUGAL SARAI CHAHNIYA ROAD CHANDOULI UP 25.32942500 83.15517170 0000-00-00 No-97 Mughal Sarai - Chahaniya Road, , Kaili, Chandauli, Uttar Pradesh-232101, IN 21-03-20
151 Uttar Pardesh Varanasi Varanasi 9.18 0 105 40 0 0 0.5 N 10 226 455 29.6 Sewerage Waste RAMNAGAR GHAT VANARASI 25.27024510 83.02593220 0000-00-00 Fort Road, Ram nagar, Ramnagar, Varanasi, Uttar Pradesh-221008, IN 21-03-20
152 Uttar Pardesh Mirzapur Chunar 8.96 0 105 40 0 0 0.6 N 10.3 197 403 30.7 Ghat Chunar Fort ghat, Mirzapur UP 25.13215140 82.88576430 0000-00-00 Main Market Road, , Aebakpur Mohana, Mirzapur, Uttar Pradesh-231304, IN 21-03-21
153 Uttar Pardesh Mirzapur Chunar 8.86 0 105 40 0.1 0 0.7 N 6.8 207 410 30.7°C Ghat Sindhara ghat, Mirzapur 25.11738270 82.81642780 0000-00-00 , , Aibakpur, Mirzapur, Uttar Pradesh-, IN 21-03-22
154 Uttar Pardesh Mirzapur Mirzapur 9.18 0 120 40 0 0.1 0.6 N 7.5 257 515 28.3 Cremation Ground RAMGAYA GHAT BAIKUNTH DHAM VINDHYACHAL 25.17141330 82.49098670 0000-00-00 Ramgaya Ghat Marg, , Bedaur, Mirzapur, Uttar Pradesh-231307, IN 21-03-24
155 Uttar Pardesh Mirzapur Mirzapur 8.96 0 135 40 0.1 0 0.6 N 7.8 251 503 29.2 Ghat NARAYAN GHAT BIJAR KALA MIRZAPUR 25.22842870 82.34230670 0000-00-00 Unnamed Road, , Purwa Uparwar, Sant Ravidas Nagar, Uttar Pradesh-221310, IN 21-03-24
156 Uttar Pardesh Allahabad Bharatganj 9.18 0 120 40 0.1 0 0.6 N 10.7 238 477 28.8 Ghat DENGUR PUR GHAT MANDA PRAYAGRAJ 25.16204220 82.24118270 0000-00-00 Unnamed Road, , Salia, Prayagraj, Uttar Pradesh-, IN 21-03-25
157 Uttar Pardesh Allahabad Panasa 9.26 0 105 40 0 0 0.6 N 10.9 233 464 29.1°C Ghat Sirsa ghat Prayagraj, UP 25.26384760 82.09262780 0000-00-00 Unnamed Road, , Sirsa, Prayagraj, Uttar Pradesh-212305, IN 21-03-25
158 Uttar Pardesh Allahabad Allahabad 9.18 0 135 60 0 0 0.6 N 10.1 264 599 29.7 Ghat CHAANDI GHAT PIPRAON PRAYAGRAJ 25.33284250 81.93353280 0000-00-00 Unnamed Road, , Piparaon Taluka Karchana, Prayagraj, Uttar Pradesh-211009, IN 21-03-25
159 Uttar Pardesh Allahabad Allahabad 9.86 40 75 40 0.1 0 0.6 N 12 200 405 29.1 Sewerage Waste RASULABAD GHAT TELIYARGANJ PRAYAGRAJ ( 1 KM UP STREAM STP ) 25.52483510 81.86187690 0000-00-00 , Phaphamau, Prayagraj, Prayagraj, Uttar Pradesh-211013, IN 21-03-30
160 Uttar Pardesh Allahabad Allahabad 9.46 30 120 40 0 0 0.7 N 7.2 200 402 25.3°C Ghat Triveni Sangam Ghat, Prayagraj ( 27/03/2021 ) 25.51119130 81.64580320 0000-00-00 Unnamed Road, , Bhamka, Kaushambi, Uttar Pradesh-212203, IN 21-03-30
161 Uttar Pardesh Allahabad Bharatganj 9.76 45 75 40 0.1 0 0.6 N 11.6 175 350 31.1°C Ghat Ujihni ghat, Kaushambi, UP 25.50500060 81.64032470 0000-00-00 Unnamed Road, , Junidpur, Kaushambi, Uttar Pradesh-212203, IN 21-03-30
162 Uttar Pardesh Allahabad Allahabad 9.56 25 90 40 0.1 0 0.6 N 12.6 201 408 27.8°C Ghat Banadnpur ghat, Kaushambi UP 25.60038520 81.59990890 0000-00-00 Unnamed Road, , Jahanabad Kachhar, Pratapgarh, Uttar Pradesh-230201, IN 21-03-31
163 Uttar Pardesh Allahabad Allahabad 9.86 30 75 40 0.1 0 0.6 N 12.9 175 349 32.1°C Ghat Sakda Kachar near bridge Kaushambi 25.66261800 81.52689960 0000-00-00 Hathigawa Road, , Purnemau, Pratapgarh, Uttar Pradesh-230201, IN 21-03-31
164 Uttar Pardesh Allahabad Allahabad 9.76 55 75 40 0.1 0 0.7 N 11.4 152 306 31.1 Ghat KADA DHAM GHAT KAUSHAMBI UP 25.70691500 81.36639170 0000-00-00 Unnamed Road, , Kade, Kaushambi, Uttar Pradesh-212204, IN 21-03-31
165 Uttar Pardesh Allahabad Allahabad 9.4 55 90 40 0.2 0 0.6 N 10.6 299 1060 29.6 Ghat Sato police Chauki nayibasti Kaushambi 25.77838760 81.40471640 0000-00-00 Piro - Jagdishpur Road, , Manikpur, Pratapgarh, Uttar Pradesh-230202, IN 21-04-01
166 Uttar Pardesh Fatehpur Husaiganj 9.6 70 90 60 0. 0 0.8 N 10.5 272 717 28.6°C Ghat Manipuri ghat, rotigaon Fatehpur UP 25.81189040 81.36967260 0000-00-00 Piro - Jagdishpur Road, , Pariyawan, Pratapgarh, Uttar Pradesh-229408, IN 21-04-01
167 Uttar Pardesh Fatehpur Husaiganj 9.2 55 105 80 0.1 0 0.7 N 11.1 226 481 22.9°C Ghat Naubasta ghat, Fatehpur UP 25.86983300 81.21108780 0000-00-00 Unnamed Road, , Baigaon, Fatehpur, Uttar Pradesh-212653, IN 21-04-02
168 Uttar Pardesh Fatehpur Camp near Hathgaon 9 50 135 60 0.1 0 8 N 11.4 328 645 27.4 Ghat SAMOPUR KHALISPUR GHAT FATEHPUR 25.97252990 81.15218060 0000-00-00 , , Bhagawantpur Chandaniha Mu, Rae Bareli, Uttar Pradesh-, IN 21-04-02
169 Uttar Pardesh Fatehpur Camp near Hathgaon 9.4 55 195 60 0.1 0 0.7 N 11.1 314 643 31.5°C Ghat Surjipur, hathgam, Fatehpur UP 25.98626090 81.08357160 0000-00-00 , , Surajpur, Fatehpur, Uttar Pradesh-212650, IN 21-04-02
170 Uttar Pardesh Fatehpur Husaiganj 8.6 0 180 60 0.1 0 0.8 N 10.2 305 612 26 Ghat RAMCHAND GHAT FATEHPUR UP 26.10053680 80.96033870 0000-00-00 Unnamed Road, , Chilaula, Rae Bareli, Uttar Pradesh-, IN 21-04-03
171 Uttar Pardesh Fatehpur Husaiganj 8.6 10 165 60 0.1 0 0.7 N 9.6 273 600 35.4 Ghat OM GHAT UNNOUR FATEHPUR UP 26.02620530 80.78118930 0000-00-00 Unnamed Road, , Rana, Fatehpur, Uttar Pradesh-212664, IN 21-04-03
172 Uttar Pardesh Fatehpur Husaiganj 9 20 135 60 0.1 0 0.7 N 11.4 248 506 29.50 Ghat Adampur ghat, Fatehpur UP 26.04747540 80.81615140 0000-00-00 Unnamed Road, , Rampur Kalan Aht., Rae Bareli, Uttar Pradesh-229216, IN 21-04-03
173 Uttar Pardesh Fatehpur Husaiganj 8.3 15 165 40 0.1 0 0.6 N 9 380 771 27.6 Ghat KOTIYA GHAT FATEHPUR 26.07301299 80.73752913 0000-00-00 Unnamed Road, , Kotiya, Rae Bareli, Uttar Pradesh-212664, IN 21-04-04
174 Uttar Pardesh Fatehpur Husaiganj 8.4 15 150 60 0.1 0 0.5 N 10.1 253 508 30.1°C Ghat Baksar ghat, Fatehpur UP 26.13649210 80.66407710 0000-00-00 Baksar-Muradipur Road, , Katribaxer, Unnao, Uttar Pradesh-229202, IN 21-04-04
175 Uttar Pardesh Kanpur Kanpur 8.4 0 150 40 0.1 0 0.7 N 10.2 245 498 22.5°C Ghat DOMANPUR GHAT, KANPUR UP 26.18738120 80.54749090 0000-00-00 GT Road, , Shadipur, Fatehpur, Uttar Pradesh-212665, IN 21-04-05
176 Uttar Pardesh Kanpur Arban Sarsaul 8.9 0 150 40 0 0 0.8 N 6 172 336 32.7°C Ghat Shekhpur ghat, Kanpur Nagar 26.44488820 80.46828480 0000-00-00 , , Chheriha, Unnao, Uttar Pradesh-209862, IN 21-04-05
177 Uttar Pardesh Kanpur Kanpur 8.8 0 135 40 0.1 0 0.6 N 7.3 151 332 25.9 Sewerage Waste NANA RAO GHAT 26.45856060 80.37299840 0000-00-00 Albert Lane, Kanpur Cantonment, Kanpur, Kanpur Nagar, Uttar Pradesh-208004, IN 21-04-07
178 Uttar Pardesh Kanpur Kanpur 9.1 0 90 40 0.1 0 0.6 N 8.5 136 274 35.5 Cremation Ground Laxman purva ghat kanpur 26.56524010 80.33123290 0000-00-00 Unnamed Road, , Kanikamau, Unnao, Uttar Pradesh-209861, IN 21-04-07
179 Uttar Pardesh Kanpur Rural Bithur 9 0 135 40 .1 0 0.7 N 11.8 182 370 31.7°c Ghat Lakshman ghat bithur, kanpur,up 26.61704220 80.27237810 0000-00-00 Pariyar Road, , Bithoor, Kanpur Nagar, Uttar Pradesh-209203, IN 21-04-08
180 Uttar Pardesh Kanpur Rural Bithur 9.3 25 120 20 0.1 0 0.7 N 8.9 145 290 34.8°C Ghat Sarsaiya Ghat, Bithur Kanpur UP 26.72683130 80.17233570 0000-00-00 , , Katri Torna Istmurari, Kanpur Nagar, Uttar Pradesh-, IN 21-04-08
181 Uttar Pardesh Kanpur Rural Bithur 9.1 0 105 40 0.1 0 0.8 N 9.9 216 412 26.3°C Ghat Nanamau Ghat, Bithur Kanpur UP 26.88345990 80.10359760 0000-00-00 Lucknow - Mohan - Hasanganj - Rasulabad Marg, , Katri Akberpur Seng, Kanpur Nagar, Uttar Pradesh-209868, IN 21-04-09
182 Uttar Pardesh Farukhabad Kannauj 9.6 50 104 40 0.1 0 0.8 N 8.9 160 320 28.9°C Ghat MEHNDI GHAT , KAALI RIVER SAMPLE ( 500m UPSTREAM KAALI GANGA RIVER) KANNAUJ UP 27.00683820 79.97959080 0000-00-00 Hardoi - Kanpur Road, , Saidpur Sakr, Kannauj, Uttar Pradesh-209727, IN 21-04-09
183 Uttar Pardesh Farukhabad Kannauj 9 25 105 20 0 0 0.7 N 7.8 208 416 28.8°C Ghat MEHNDI GHAT 'GANGA KAALI SANGAM' ( 500m DOWNSTREAM) KANNAUJ UP 27.00875790 79.98098910 0000-00-00 Hardoi - Kanpur Road, , Kalsanapur, Kannauj, Uttar Pradesh-209727, IN 21-04-09
184 Uttar Pardesh Farukhabad Kannauj 8.8 10 120 20 0 0 0.6 N 7.5 165 330 30.1°C Ghat Kusumkhor ghat, Kannauj, UP ( 800m Downstream Sample Ganga& Ramganga Sangam 27.14853238 79.88551242 0000-00-00 underconstruction Bridge, , , Hardoi, Uttar Pradesh-, IN 21-04-10
185 Uttar Pardesh Farukhabad Kannauj 8.7 0 105 20 0 0 0.6 N 7.1 123 246 31.5°C Ghat Chandapur ghat, Kannauj UP ( 500m upstream Ramganga Sangam) 27.18302600 79.88025810 0000-00-00 Unnamed Road, , , Hardoi, Uttar Pradesh-241402, IN 21-04-10
186 Uttar Pardesh Farukhabad Kannauj 8.7 0 105 20 0 0 0.6 N 6 215 215 32.5°C Ghat Chiyasar ghat Kannauj UP 27.21859650 79.71562330 0000-00-00 Unnamed Road, , , Farrukhabad, Uttar Pradesh-, IN 21-04-10
187 Uttar Pardesh Farukhabad Kamalganj 8.6 0 105 20 0 0 0.6 N 7.8 184 370 25.6°C Ghat Bhojpur Farrukhabad 27.29528800 79.63775390 0000-00-00 Unnamed Road, , Bhoj Pur, Farrukhabad, Uttar Pradesh-209749, IN 21-04-11
188 Uttar Pardesh Farukhabad Kaimganj 8.6 0 105 20 0 0 0.6 N 5.3 109 219 33.7°C Ghat Samsabad Dhai Ghat, Farrukhabad UP 27.56308290 79.45966520 0000-00-00 , , Kasimpur Tarai, Farrukhabad, Uttar Pradesh-, IN 21-04-12
189 Uttar Pardesh Eata Soron near Kasganj 8.6 0 90 20 0 0 0.6 N 7.3 37 283 28.5°C Ghat Atena Ghat, opposite side, Farrukhabad UP 27.68354240 79.30166060 0000-00-00 Farrukhabad Road, , , , Uttar Pradesh-, IN 21-04-13
190 Uttar Pardesh Budaun Gawan 8.8 0 105 20 0 0 0.6 N 6.1 128 256 36.3 Ghat KADAM NANGALA GHAT BADAYOUN 27.71033170 79.20935170 0000-00-00 Unnamed Road, , Behta, Badaun, Uttar Pradesh-, IN 21-04-13
191 Uttar Pardesh Eata Soron near Kasganj 8.8 0 75 20 0 0 0.5 N 7 102 205 30.7°aC Ghat Kadarganj Ghat Patiwali Kashganj UP 27.79706750 79.06079800 0000-00-00 Unnamed Road, , Quadar Ganj Pukhta, Kanshi Ram Nagar, Uttar Pradesh-207242, IN 21-04-14
192 Uttar Pardesh Eata Soron near Kasganj 8.8 0 90 20 0 0 0.5 N 8.4 102 215 30°C Ghat Sugandhi ghat, Patiyaali Kashganj 27.82322140 78.94491090 0000-00-00 Unnamed Road, , Kilauni, Kanshi Ram Nagar, Uttar Pradesh-207242, IN 21-04-15
193 Uttar Pardesh Budaun Sahaswan (between Sahaswan and Gunnaur) 8.7 0 105 20 0 0 .5 N 6.1 89 181 31°C Ghat Kachhla ghat, Budaun 27.90892070 78.82499170 0000-00-00 State Highway 33, , Udher Pukhta, Etah, Uttar Pradesh-207402, IN 21-04-15
194 Uttar Pardesh Budaun Bitroi (Kachhlaghat, Qadirganj,Kakrala) 8.7 0 90 20 0 0 0.5 N 7.5 99 198 29.8 Ghat BARWARA GHAT ALIPUR BADAUN UP ( SAND MINING ) 28.00072330 78.65490670 0000-00-00 , , Bahoranpur Dhelasarai, Badaun, Uttar Pradesh-207403, IN 21-04-16
195 Uttar Pardesh Bulandshahar Rajghat Naraura 8.8 0 75 20 0 0 0.5 N 8.4 90 181 30.3°C Ghat Ram Ghat, Bulandshahar UP 28.18457690 78.48141020 0000-00-00 Unnamed Road, , Bijua Nagala, Sambhal, Uttar Pradesh-243722, IN 21-04-17
196 Uttar Pardesh Aligarh Camp near dadon 8.9 0 90 20 0 0 0.5 N 8.4 101 204 25.2 Ghat SANKARA GHAT SAMASPUR DANDA UP 28.14314050 78.41507640 0000-00-00 Ramghat Road, , Retuka Nagla/Maharajpur, Bulandshahar, Uttar Pradesh-203399, IN 21-04-17